Time;durP1;ratioP1;P1;durP2;ratioP2;P2;SDS_P1;SDS_P2;PMS_P1;PMS_P2;Temp;Humidity;BMP_temperature;BMP_pressure;BME280_temperature;BME280_humidity;BME280_pressure;Samples;Min_cycle;Max_cycle;Signal;HPM_P1;HPM_P2
2024/01/05 00:01:54;;;;;;;29.33;19.83;;;3.60;99.90;;;;;;5124840;27;20532;-75
2024/01/05 00:04:20;;;;;;;28.77;19.73;;;3.60;99.90;;;;;;5130089;27;20043;-75
2024/01/05 00:06:46;;;;;;;27.80;19.77;;;3.60;99.90;;;;;;5110928;27;20140;-76
2024/01/05 00:09:11;;;;;;;27.90;19.67;;;3.60;99.90;;;;;;5108475;27;20034;-75
2024/01/05 00:11:37;;;;;;;26.23;19.35;;;3.50;99.90;;;;;;5102838;27;20046;-75
2024/01/05 00:14:03;;;;;;;26.90;19.38;;;3.50;99.90;;;;;;5151745;27;20044;-76
2024/01/05 00:16:29;;;;;;;26.95;18.85;;;3.50;99.90;;;;;;5127334;27;20453;-75
2024/01/05 00:18:54;;;;;;;26.73;18.27;;;3.50;99.90;;;;;;5111223;27;20046;-75
2024/01/05 00:21:28;;;;;;;27.05;18.88;;;3.60;99.90;;;;;;5124279;27;20595;-75
2024/01/05 00:23:55;;;;;;;26.88;18.05;;;3.50;99.90;;;;;;5120844;27;20520;-75
2024/01/05 00:26:21;;;;;;;27.77;18.10;;;3.60;99.90;;;;;;5119685;27;20047;-76
2024/01/05 00:28:48;;;;;;;29.88;17.80;;;3.60;99.90;;;;;;5118062;27;20047;-75
2024/01/05 00:31:15;;;;;;;24.55;17.55;;;3.50;99.90;;;;;;5125429;27;20111;-75
2024/01/05 00:33:42;;;;;;;29.80;18.30;;;3.50;99.90;;;;;;5120392;27;20055;-75
2024/01/05 00:36:09;;;;;;;26.63;16.67;;;3.50;99.90;;;;;;5115842;27;20046;-75
2024/01/05 00:38:35;;;;;;;26.90;18.00;;;3.50;99.90;;;;;;5102990;27;20501;-75
2024/01/05 00:41:02;;;;;;;33.38;17.90;;;3.50;99.90;;;;;;5127996;27;20046;-75
2024/01/05 00:43:28;;;;;;;33.38;17.70;;;3.50;99.90;;;;;;5131909;27;20500;-75
2024/01/05 00:45:55;;;;;;;27.15;16.38;;;3.60;99.90;;;;;;5111705;27;20046;-75
2024/01/05 00:48:21;;;;;;;25.35;16.42;;;3.60;99.90;;;;;;5111031;27;20091;-76
2024/01/05 00:50:47;;;;;;;28.52;16.45;;;3.50;99.90;;;;;;5118077;27;20039;-75
2024/01/05 00:53:13;;;;;;;29.83;16.15;;;3.60;99.90;;;;;;5129154;27;20046;-75
2024/01/05 00:55:39;;;;;;;27.13;16.23;;;3.70;99.90;;;;;;5111184;27;20043;-76
2024/01/05 00:58:05;;;;;;;26.83;16.63;;;3.50;99.90;;;;;;5132750;27;20500;-75
2024/01/05 01:00:31;;;;;;;31.70;16.02;;;3.50;99.90;;;;;;5118423;27;20075;-75
2024/01/05 01:02:56;;;;;;;31.45;16.83;;;3.50;99.90;;;;;;5095470;28;20498;-75
2024/01/05 01:05:22;;;;;;;28.25;16.95;;;3.50;99.90;;;;;;5124083;27;20213;-75
2024/01/05 01:07:48;;;;;;;29.73;16.20;;;3.50;99.90;;;;;;5127760;27;20088;-76
2024/01/05 01:10:14;;;;;;;26.38;16.10;;;3.40;99.90;;;;;;5132535;27;20511;-75
2024/01/05 01:12:40;;;;;;;25.33;17.48;;;3.40;99.90;;;;;;5120277;27;20144;-77
2024/01/05 01:15:06;;;;;;;31.73;17.80;;;3.40;99.90;;;;;;5103559;27;20071;-75
2024/01/05 01:17:35;;;;;;;27.77;18.42;;;3.40;99.90;;;;;;5096879;27;20382;-75
2024/01/05 01:20:01;;;;;;;31.90;18.25;;;3.40;99.90;;;;;;5102533;27;20568;-75
2024/01/05 01:22:27;;;;;;;29.60;19.17;;;3.50;99.90;;;;;;5131238;27;20130;-75
2024/01/05 01:24:53;;;;;;;31.90;18.52;;;3.40;99.90;;;;;;5114009;27;20121;-75
2024/01/05 01:27:19;;;;;;;29.90;20.00;;;3.40;99.90;;;;;;5138538;27;20088;-77
2024/01/05 01:29:44;;;;;;;32.05;20.48;;;3.40;99.90;;;;;;5112792;27;20104;-75
2024/01/05 01:32:10;;;;;;;31.80;20.05;;;3.50;99.90;;;;;;5112347;27;20440;-73
2024/01/05 01:34:38;;;;;;;33.67;20.13;;;3.50;99.90;;;;;;5128489;27;20506;-74
2024/01/05 01:37:04;;;;;;;30.42;20.63;;;3.50;99.90;;;;;;5132358;27;20382;-73
2024/01/05 01:39:30;;;;;;;29.83;21.25;;;3.50;99.90;;;;;;5106204;27;20113;-74
2024/01/05 01:41:57;;;;;;;29.40;21.15;;;3.50;99.90;;;;;;5129046;27;20114;-74
2024/01/05 01:44:22;;;;;;;30.55;22.15;;;3.50;99.90;;;;;;5132119;27;20539;-74
2024/01/05 01:46:50;;;;;;;32.67;22.75;;;3.50;99.90;;;;;;5128076;27;20038;-74
2024/01/05 01:49:16;;;;;;;28.52;21.73;;;3.50;99.90;;;;;;5133024;27;20121;-74
2024/01/05 01:51:43;;;;;;;34.47;23.52;;;3.40;99.90;;;;;;5139211;27;20078;-75
2024/01/05 01:54:09;;;;;;;34.08;24.13;;;3.40;99.90;;;;;;5118814;27;20026;-74
2024/01/05 01:56:36;;;;;;;34.63;23.45;;;3.50;99.90;;;;;;5125566;27;20070;-74
2024/01/05 01:59:03;;;;;;;31.63;23.70;;;3.50;99.90;;;;;;5112764;27;20043;-74
2024/01/05 02:01:28;;;;;;;35.47;24.30;;;3.50;99.90;;;;;;5107808;27;20409;-74
2024/01/05 02:03:54;;;;;;;32.55;24.42;;;3.50;99.90;;;;;;5126714;27;20039;-74
2024/01/05 02:06:20;;;;;;;33.45;23.65;;;3.60;99.90;;;;;;5125257;27;20110;-73
2024/01/05 02:08:49;;;;;;;31.25;24.60;;;3.60;99.90;;;;;;5111130;27;20066;-74
2024/01/05 02:11:15;;;;;;;37.30;26.13;;;3.60;99.90;;;;;;5133136;27;20062;-74
2024/01/05 02:13:42;;;;;;;34.00;24.23;;;3.50;99.90;;;;;;5107401;27;20930;-73
2024/01/05 02:16:07;;;;;;;34.78;23.98;;;3.50;99.90;;;;;;5128427;27;20107;-75
2024/01/05 02:18:33;;;;;;;34.00;23.27;;;3.50;99.90;;;;;;5128979;27;20089;-74
2024/01/05 02:21:00;;;;;;;29.17;23.30;;;3.50;99.90;;;;;;5127063;27;20138;-75
2024/01/05 02:23:33;;;;;;;34.83;24.35;;;3.50;99.90;;;;;;5105277;27;20050;-75
2024/01/05 02:26:00;;;;;;;33.58;23.33;;;3.50;99.90;;;;;;5113240;27;20043;-75
2024/01/05 02:28:26;;;;;;;33.70;23.75;;;3.50;99.90;;;;;;5127304;27;20050;-74
2024/01/05 02:30:56;;;;;;;31.27;23.58;;;3.50;99.90;;;;;;5130608;27;20042;-74
2024/01/05 02:33:22;;;;;;;33.08;24.42;;;3.60;99.90;;;;;;5129321;27;20046;-74
2024/01/05 02:35:49;;;;;;;33.38;23.65;;;3.50;99.90;;;;;;5111969;27;20107;-75
2024/01/05 02:38:15;;;;;;;32.85;22.95;;;3.50;99.90;;;;;;5160018;27;20331;-74
2024/01/05 02:40:41;;;;;;;34.92;23.63;;;3.50;99.90;;;;;;5131057;27;20051;-75
2024/01/05 02:43:07;;;;;;;34.40;22.58;;;3.50;99.90;;;;;;5135690;27;20079;-75
2024/01/05 02:45:33;;;;;;;35.08;24.30;;;3.50;99.90;;;;;;5126809;27;20394;-75
2024/01/05 02:47:59;;;;;;;30.63;21.90;;;3.50;99.90;;;;;;5139822;27;20038;-75
2024/01/05 02:50:25;;;;;;;30.02;22.13;;;3.50;99.90;;;;;;5119165;27;20039;-75
2024/01/05 02:52:53;;;;;;;30.02;21.77;;;3.50;99.90;;;;;;5139337;27;20039;-75
2024/01/05 02:55:19;;;;;;;36.85;24.05;;;3.50;99.90;;;;;;5127426;27;20046;-74
2024/01/05 02:57:45;;;;;;;29.75;21.70;;;3.50;99.90;;;;;;5119175;27;20478;-74
2024/01/05 03:00:11;;;;;;;36.08;23.15;;;3.50;99.90;;;;;;5118172;27;20054;-76
2024/01/05 03:02:36;;;;;;;33.45;23.23;;;3.40;99.90;;;;;;5106014;27;20054;-77
2024/01/05 03:05:04;;;;;;;29.67;21.98;;;3.40;99.90;;;;;;5119059;27;20045;-77
2024/01/05 03:07:30;;;;;;;29.15;22.85;;;3.50;99.90;;;;;;5121187;27;20719;-77
2024/01/05 03:09:56;;;;;;;30.15;22.30;;;3.50;99.90;;;;;;5095572;27;20530;-78
2024/01/05 03:12:22;;;;;;;27.80;21.02;;;3.50;99.90;;;;;;5104450;27;20050;-78
2024/01/05 03:14:47;;;;;;;30.08;21.15;;;3.40;99.90;;;;;;5107916;27;20046;-79
2024/01/05 03:17:13;;;;;;;28.33;21.40;;;3.50;99.90;;;;;;5093168;27;20401;-77
2024/01/05 03:19:39;;;;;;;30.67;21.75;;;3.50;99.90;;;;;;5093235;27;20039;-77
2024/01/05 03:22:04;;;;;;;27.60;20.35;;;3.50;99.90;;;;;;5090535;27;20519;-77
2024/01/05 03:24:30;;;;;;;28.45;20.50;;;3.50;99.90;;;;;;5117929;27;20070;-77
2024/01/05 03:26:56;;;;;;;27.45;19.80;;;3.60;99.90;;;;;;5115055;27;20191;-77
2024/01/05 03:29:21;;;;;;;25.05;20.33;;;3.50;99.90;;;;;;5118990;27;20047;-77
2024/01/05 03:31:47;;;;;;;22.17;18.05;;;3.50;99.90;;;;;;5117381;27;20055;-76
2024/01/05 03:34:14;;;;;;;25.70;20.13;;;3.60;99.90;;;;;;5120866;27;20171;-77
2024/01/05 03:36:40;;;;;;;25.52;19.85;;;3.60;99.90;;;;;;5112213;27;20493;-77
2024/01/05 03:39:07;;;;;;;22.23;18.42;;;3.60;99.90;;;;;;5124336;27;20046;-76
2024/01/05 03:41:34;;;;;;;25.90;19.50;;;3.60;99.90;;;;;;5096715;27;20486;-77
2024/01/05 03:43:59;;;;;;;26.45;20.10;;;3.60;99.90;;;;;;5109560;27;20118;-77
2024/01/05 03:46:28;;;;;;;25.60;20.02;;;3.60;99.90;;;;;;5117003;27;20099;-76
2024/01/05 03:48:54;;;;;;;26.55;20.10;;;3.60;99.90;;;;;;5116874;27;20039;-76
2024/01/05 03:51:20;;;;;;;30.80;22.55;;;3.70;99.90;;;;;;5117310;27;20321;-76
2024/01/05 03:53:45;;;;;;;29.58;21.83;;;3.60;99.90;;;;;;5117720;27;21203;-75
2024/01/05 03:56:12;;;;;;;28.67;22.02;;;3.60;99.90;;;;;;5103597;27;20041;-75
2024/01/05 03:58:37;;;;;;;28.23;21.05;;;3.60;99.90;;;;;;5116917;27;20057;-75
2024/01/05 04:01:06;;;;;;;28.67;21.10;;;3.60;99.90;;;;;;5114163;27;20070;-75
2024/01/05 04:03:32;;;;;;;24.88;19.92;;;3.60;99.90;;;;;;5106602;27;20078;-76
2024/01/05 04:05:57;;;;;;;28.20;21.10;;;3.60;99.90;;;;;;5113921;27;20102;-76
2024/01/05 04:08:23;;;;;;;27.73;21.42;;;3.60;99.90;;;;;;5116760;27;20476;-76
2024/01/05 04:10:49;;;;;;;26.33;20.05;;;3.70;99.90;;;;;;5128599;27;20055;-77
2024/01/05 04:13:15;;;;;;;28.40;20.88;;;3.60;99.90;;;;;;5101069;27;20081;-75
2024/01/05 04:15:40;;;;;;;28.20;20.63;;;3.70;99.90;;;;;;5093412;27;20058;-76
2024/01/05 04:18:06;;;;;;;26.42;20.02;;;3.70;99.90;;;;;;5112070;27;20050;-75
2024/01/05 04:20:32;;;;;;;24.90;19.73;;;3.70;99.90;;;;;;5128364;27;20529;-75
2024/01/05 04:22:59;;;;;;;28.40;20.77;;;3.70;99.90;;;;;;5118422;27;20046;-76
2024/01/05 04:25:25;;;;;;;30.38;22.15;;;3.70;99.90;;;;;;5117023;27;20089;-75
2024/01/05 04:27:51;;;;;;;32.05;22.58;;;3.70;99.90;;;;;;5133121;27;20058;-78
2024/01/05 04:30:19;;;;;;;27.95;20.55;;;3.80;99.90;;;;;;5119058;27;20039;-74
2024/01/05 04:32:45;;;;;;;30.80;22.42;;;3.70;99.90;;;;;;5123900;27;20177;-76
2024/01/05 04:35:11;;;;;;;31.23;23.17;;;3.70;99.90;;;;;;5133520;27;20133;-76
2024/01/05 04:37:36;;;;;;;33.30;22.88;;;3.70;99.90;;;;;;5122953;27;20690;-75
2024/01/05 04:40:03;;;;;;;31.83;23.77;;;3.80;99.90;;;;;;5102844;27;20046;-75
2024/01/05 04:42:29;;;;;;;31.35;23.75;;;3.80;99.90;;;;;;5114620;27;20047;-75
2024/01/05 04:44:55;;;;;;;32.00;23.08;;;3.80;99.90;;;;;;5121498;27;20034;-75
2024/01/05 04:47:21;;;;;;;34.28;23.83;;;3.80;99.90;;;;;;5131217;27;20471;-75
2024/01/05 04:49:47;;;;;;;36.05;25.05;;;3.80;99.90;;;;;;5120056;27;20423;-75
2024/01/05 04:52:13;;;;;;;35.65;24.85;;;3.80;99.90;;;;;;5127998;27;20417;-75
2024/01/05 04:54:39;;;;;;;36.35;25.95;;;3.80;99.90;;;;;;5112126;27;20058;-75
2024/01/05 04:57:04;;;;;;;36.47;26.10;;;3.80;99.90;;;;;;5124027;27;20063;-74
2024/01/05 04:59:30;;;;;;;34.28;24.50;;;3.80;99.90;;;;;;5122215;27;20374;-74
2024/01/05 05:01:57;;;;;;;35.88;25.80;;;3.90;99.90;;;;;;5112243;27;20489;-75
2024/01/05 05:04:22;;;;;;;36.65;25.63;;;3.80;99.90;;;;;;5130607;27;20042;-75
2024/01/05 05:06:48;;;;;;;37.42;26.42;;;3.80;99.90;;;;;;5139102;27;20065;-75
2024/01/05 05:09:14;;;;;;;38.38;25.85;;;3.80;99.90;;;;;;5135479;27;20031;-74
2024/01/05 05:11:40;;;;;;;36.90;26.55;;;3.80;99.90;;;;;;5131770;27;20118;-75
2024/01/05 05:14:05;;;;;;;38.28;26.83;;;3.90;99.90;;;;;;5118420;27;20043;-75
2024/01/05 05:16:32;;;;;;;36.83;26.25;;;3.80;99.90;;;;;;5134983;27;20049;-75
2024/01/05 05:18:58;;;;;;;41.92;28.20;;;3.90;99.90;;;;;;5148754;27;20055;-75
2024/01/05 05:21:25;;;;;;;38.75;27.88;;;3.90;99.90;;;;;;5125939;27;20050;-75
2024/01/05 05:23:51;;;;;;;37.88;27.45;;;3.90;99.90;;;;;;5121045;27;20138;-74
2024/01/05 05:26:17;;;;;;;39.10;27.83;;;3.90;99.90;;;;;;5109496;27;20197;-74
2024/01/05 05:28:42;;;;;;;39.40;28.77;;;3.90;99.90;;;;;;5114536;27;20042;-75
2024/01/05 05:31:09;;;;;;;41.78;28.90;;;4.00;99.90;;;;;;5129950;27;20038;-75
2024/01/05 05:33:34;;;;;;;36.75;27.48;;;3.90;99.90;;;;;;5129486;27;20051;-75
2024/01/05 05:36:00;;;;;;;38.83;27.40;;;4.00;99.90;;;;;;5127392;27;20052;-76
2024/01/05 05:38:26;;;;;;;35.60;26.70;;;4.00;99.90;;;;;;5136053;27;20102;-76
2024/01/05 05:40:52;;;;;;;38.72;27.58;;;4.00;99.90;;;;;;5140469;27;20058;-75
2024/01/05 05:43:17;;;;;;;38.38;28.15;;;4.00;99.90;;;;;;5135335;27;20034;-75
2024/01/05 05:45:43;;;;;;;40.20;28.00;;;4.00;99.90;;;;;;5131560;27;20051;-76
2024/01/05 05:48:10;;;;;;;40.42;27.98;;;4.10;99.90;;;;;;5120720;27;20042;-76
2024/01/05 05:50:36;;;;;;;41.38;28.88;;;4.10;99.90;;;;;;5130597;27;20093;-76
2024/01/05 05:53:02;;;;;;;39.10;26.88;;;4.10;99.90;;;;;;5121838;27;20669;-76
2024/01/05 05:55:27;;;;;;;39.70;28.70;;;4.00;99.90;;;;;;5129058;27;20043;-76
2024/01/05 05:57:53;;;;;;;39.83;28.33;;;4.10;99.90;;;;;;5121472;27;20143;-75
2024/01/05 06:00:19;;;;;;;38.88;27.83;;;4.10;99.90;;;;;;5117892;27;20092;-74
2024/01/05 06:02:45;;;;;;;37.78;28.08;;;4.10;99.90;;;;;;5123809;27;20409;-75
2024/01/05 06:05:10;;;;;;;41.30;28.23;;;4.20;99.90;;;;;;5103383;27;20497;-75
2024/01/05 06:07:36;;;;;;;39.47;28.50;;;4.10;99.90;;;;;;5109416;27;20473;-75
2024/01/05 06:10:02;;;;;;;40.05;28.58;;;4.10;99.90;;;;;;5118531;27;20285;-74
2024/01/05 06:12:28;;;;;;;39.25;28.52;;;4.10;99.90;;;;;;5131878;27;20042;-75
2024/01/05 06:14:54;;;;;;;41.60;29.63;;;4.20;99.90;;;;;;5134314;27;20042;-74
2024/01/05 06:17:20;;;;;;;37.75;27.70;;;4.20;99.90;;;;;;5115625;27;20039;-75
2024/01/05 06:19:45;;;;;;;41.55;29.67;;;4.20;99.90;;;;;;5115026;27;20038;-74
2024/01/05 06:22:11;;;;;;;44.67;30.30;;;4.30;99.90;;;;;;5133717;27;20043;-75
2024/01/05 06:24:37;;;;;;;43.05;29.85;;;4.20;99.90;;;;;;5135810;27;20093;-76
2024/01/05 06:27:03;;;;;;;44.25;28.60;;;4.20;99.90;;;;;;5108256;27;20031;-76
2024/01/05 06:29:29;;;;;;;40.28;28.17;;;4.30;99.90;;;;;;5132475;27;20034;-76
2024/01/05 06:31:57;;;;;;;39.75;27.60;;;4.20;99.90;;;;;;5127985;27;20066;-76
2024/01/05 06:34:23;;;;;;;42.85;28.20;;;4.20;99.90;;;;;;5138247;27;20076;-76
2024/01/05 06:36:49;;;;;;;42.63;28.40;;;4.20;99.90;;;;;;5118425;27;20533;-76
2024/01/05 06:39:15;;;;;;;39.17;26.98;;;4.30;99.90;;;;;;5133841;27;20045;-76
2024/01/05 06:41:40;;;;;;;41.10;27.92;;;4.30;99.90;;;;;;5110892;27;20482;-76
2024/01/05 06:44:06;;;;;;;41.22;28.55;;;4.30;99.90;;;;;;5134560;27;20429;-76
2024/01/05 06:46:32;;;;;;;38.80;27.23;;;4.20;99.90;;;;;;5104566;27;20393;-75
2024/01/05 06:48:58;;;;;;;43.55;29.83;;;4.30;99.90;;;;;;5128224;27;20034;-76
2024/01/05 06:51:28;;;;;;;45.75;30.33;;;4.30;99.90;;;;;;5113149;27;20077;-75
2024/01/05 06:53:55;;;;;;;47.50;31.08;;;4.30;99.90;;;;;;5133104;27;20115;-76
2024/01/05 06:56:21;;;;;;;45.72;30.15;;;4.30;99.90;;;;;;5115119;27;20417;-76
2024/01/05 06:58:46;;;;;;;48.97;31.08;;;4.30;99.90;;;;;;5131509;27;20050;-76
2024/01/05 07:01:13;;;;;;;46.67;29.23;;;4.40;99.90;;;;;;5137474;27;20054;-76
2024/01/05 07:03:39;;;;;;;45.22;30.75;;;4.40;99.90;;;;;;5139426;27;20717;-76
2024/01/05 07:06:05;;;;;;;47.40;28.88;;;4.30;99.90;;;;;;5108182;27;20076;-76
2024/01/05 07:08:31;;;;;;;44.33;29.55;;;4.30;99.90;;;;;;5123794;27;20488;-76
2024/01/05 07:10:56;;;;;;;47.95;30.70;;;4.30;99.90;;;;;;5120982;27;20547;-76
2024/01/05 07:13:22;;;;;;;43.42;30.90;;;4.30;99.90;;;;;;5119823;27;20042;-77
2024/01/05 07:15:48;;;;;;;46.83;31.88;;;4.40;99.90;;;;;;5116644;27;20039;-76
2024/01/05 07:18:14;;;;;;;53.42;32.13;;;4.40;99.90;;;;;;5121699;27;20081;-76
2024/01/05 07:20:39;;;;;;;51.63;32.33;;;4.30;99.90;;;;;;5118970;27;20066;-76
2024/01/05 07:23:05;;;;;;;54.00;34.15;;;4.40;99.90;;;;;;5120555;27;20039;-76
2024/01/05 07:25:31;;;;;;;52.08;34.42;;;4.30;99.90;;;;;;5115536;27;20472;-76
2024/01/05 07:27:56;;;;;;;54.30;35.25;;;4.40;99.90;;;;;;5134712;27;20134;-76
2024/01/05 07:30:22;;;;;;;57.38;35.22;;;4.40;99.90;;;;;;5113141;27;20039;-76
2024/01/05 07:32:48;;;;;;;59.13;35.90;;;4.40;99.90;;;;;;5115478;27;20050;-76
2024/01/05 07:35:13;;;;;;;57.90;38.30;;;4.50;99.90;;;;;;5131472;27;20133;-75
2024/01/05 07:37:39;;;;;;;59.20;37.60;;;4.50;99.90;;;;;;5107482;27;20043;-75
2024/01/05 07:40:06;;;;;;;63.60;38.85;;;4.50;99.90;;;;;;5125947;27;20042;-75
2024/01/05 07:42:32;;;;;;;58.58;37.58;;;4.60;99.90;;;;;;5131278;27;20051;-74
2024/01/05 07:44:58;;;;;;;59.67;38.45;;;4.60;99.90;;;;;;5132908;27;20030;-75
2024/01/05 07:47:24;;;;;;;64.88;39.17;;;4.60;99.90;;;;;;5108716;27;20062;-74
2024/01/05 07:49:50;;;;;;;64.43;39.17;;;4.60;99.90;;;;;;5120774;27;20053;-75
2024/01/05 07:52:16;;;;;;;60.45;38.65;;;4.70;99.90;;;;;;5122321;27;20043;-76
2024/01/05 07:54:43;;;;;;;59.88;38.45;;;4.60;99.90;;;;;;5123043;27;20039;-75
2024/01/05 07:57:09;;;;;;;65.43;40.10;;;4.60;99.90;;;;;;5116435;27;20050;-75
2024/01/05 07:59:35;;;;;;;62.35;38.03;;;4.70;99.90;;;;;;5125316;27;20054;-75
2024/01/05 08:02:01;;;;;;;63.13;39.92;;;4.70;99.90;;;;;;5116639;27;20055;-76
2024/01/05 08:04:28;;;;;;;63.38;39.72;;;4.70;99.90;;;;;;5145850;27;20468;-76
2024/01/05 08:06:53;;;;;;;59.78;40.50;;;4.80;99.90;;;;;;5105347;27;20775;-75
2024/01/05 08:09:19;;;;;;;58.28;38.55;;;4.80;99.90;;;;;;5111254;27;20575;-75
2024/01/05 08:11:45;;;;;;;65.53;39.97;;;4.90;99.90;;;;;;5123426;27;20440;-76
2024/01/05 08:14:10;;;;;;;61.08;39.38;;;4.90;99.90;;;;;;5107628;27;20047;-75
2024/01/05 08:16:37;;;;;;;65.25;40.03;;;4.90;99.90;;;;;;5119091;27;20449;-76
2024/01/05 08:19:02;;;;;;;58.47;38.20;;;4.90;99.90;;;;;;5122283;27;20125;-75
2024/01/05 08:21:28;;;;;;;66.20;39.03;;;4.90;99.90;;;;;;5119483;27;20130;-74
2024/01/05 08:23:54;;;;;;;54.65;37.40;;;4.90;99.90;;;;;;5114178;27;20569;-74
2024/01/05 08:26:20;;;;;;;63.75;39.13;;;5.00;99.90;;;;;;5118627;27;20051;-75
2024/01/05 08:28:46;;;;;;;56.40;37.38;;;5.00;99.90;;;;;;5118957;27;20148;-79
2024/01/05 08:31:12;;;;;;;51.78;34.72;;;5.00;99.90;;;;;;5118456;27;20045;-76
2024/01/05 08:33:38;;;;;;;60.20;37.58;;;5.00;99.90;;;;;;5123361;27;20097;-76
2024/01/05 08:36:04;;;;;;;56.10;35.55;;;5.00;99.90;;;;;;5136035;27;20416;-75
2024/01/05 08:38:30;;;;;;;51.53;34.92;;;5.00;99.90;;;;;;5109858;27;20046;-76
2024/01/05 08:40:58;;;;;;;57.78;34.72;;;5.00;99.90;;;;;;5117027;27;20118;-76
2024/01/05 08:43:24;;;;;;;47.45;32.53;;;5.00;99.90;;;;;;5118623;27;20043;-75
2024/01/05 08:45:50;;;;;;;47.55;32.83;;;5.00;99.90;;;;;;5122494;27;20123;-76
2024/01/05 08:48:16;;;;;;;47.30;32.95;;;5.10;99.90;;;;;;5115349;27;20041;-76
2024/01/05 08:50:41;;;;;;;50.67;34.63;;;5.20;99.90;;;;;;5120003;27;20485;-76
2024/01/05 08:53:09;;;;;;;53.58;35.03;;;5.10;99.90;;;;;;5120196;27;20065;-76
2024/01/05 08:55:38;;;;;;;52.90;36.05;;;5.20;99.90;;;;;;5098687;27;20039;-76
2024/01/05 08:58:04;;;;;;;53.33;34.42;;;5.20;99.90;;;;;;5105179;27;20497;-76
2024/01/05 09:00:30;;;;;;;52.80;35.00;;;5.10;99.90;;;;;;5114806;27;20117;-76
2024/01/05 09:02:58;;;;;;;47.55;32.83;;;5.10;99.90;;;;;;5114550;27;20160;-76
2024/01/05 09:05:24;;;;;;;55.20;34.55;;;5.10;99.90;;;;;;5131903;27;20074;-76
2024/01/05 09:07:53;;;;;;;49.58;32.83;;;5.20;99.90;;;;;;5115144;27;20481;-76
2024/01/05 09:10:18;;;;;;;49.05;32.92;;;5.20;99.90;;;;;;5109298;27;20035;-76
2024/01/05 09:12:44;;;;;;;49.90;33.95;;;5.20;99.90;;;;;;5112257;27;20046;-76
2024/01/05 09:15:10;;;;;;;45.13;33.95;;;5.30;99.90;;;;;;5111992;27;20074;-76
2024/01/05 09:17:36;;;;;;;46.97;32.20;;;5.30;99.90;;;;;;5114912;27;20548;-75
2024/01/05 09:20:03;;;;;;;49.88;33.95;;;5.30;99.90;;;;;;5101359;27;20045;-76
2024/01/05 09:22:29;;;;;;;52.25;35.17;;;5.30;99.90;;;;;;5114670;27;20047;-76
2024/01/05 09:24:54;;;;;;;47.53;34.47;;;5.30;99.90;;;;;;5117903;27;20039;-76
2024/01/05 09:27:20;;;;;;;51.60;34.67;;;5.30;99.90;;;;;;5097168;27;20041;-76
2024/01/05 09:29:46;;;;;;;55.92;35.55;;;5.30;99.90;;;;;;5106793;27;20034;-76
2024/01/05 09:32:11;;;;;;;57.60;37.67;;;5.40;99.90;;;;;;5123464;27;20845;-76
2024/01/05 09:34:37;;;;;;;53.47;35.10;;;5.30;99.90;;;;;;5115686;27;20076;-76
2024/01/05 09:37:03;;;;;;;51.78;34.05;;;5.40;99.90;;;;;;5123428;27;20034;-76
2024/01/05 09:39:29;;;;;;;52.13;34.38;;;5.40;99.90;;;;;;5132094;27;20042;-76
2024/01/05 09:41:58;;;;;;;51.08;34.92;;;5.50;99.90;;;;;;5126655;27;20038;-76
2024/01/05 09:44:25;;;;;;;52.90;35.70;;;5.50;99.90;;;;;;5133812;27;20038;-77
2024/01/05 09:46:51;;;;;;;48.90;33.35;;;5.40;99.90;;;;;;5121220;27;20133;-76
2024/01/05 09:49:18;;;;;;;51.20;34.67;;;5.50;99.90;;;;;;5127237;27;20117;-76
2024/01/05 09:51:47;;;;;;;48.10;32.92;;;5.50;99.90;;;;;;5113977;27;20061;-76
2024/01/05 09:54:13;;;;;;;54.15;34.10;;;5.60;99.90;;;;;;5126043;27;20050;-76
2024/01/05 09:56:40;;;;;;;54.20;33.13;;;5.60;99.90;;;;;;5117226;27;20049;-76
2024/01/05 09:59:07;;;;;;;49.92;32.17;;;5.60;99.90;;;;;;5118958;27;20417;-77
2024/01/05 10:01:37;;;;;;;42.03;28.27;;;5.60;99.90;;;;;;5146151;27;20054;-77
2024/01/05 10:04:02;;;;;;;38.17;25.52;;;5.70;99.90;;;;;;5112097;27;20027;-76
2024/01/05 10:06:30;;;;;;;36.28;26.70;;;5.70;99.90;;;;;;5105031;27;20485;-77
2024/01/05 10:08:58;;;;;;;44.17;28.27;;;5.80;99.90;;;;;;5107810;27;20036;-77
2024/01/05 10:11:29;;;;;;;37.38;25.58;;;5.80;99.90;;;;;;5120904;27;20372;-77
2024/01/05 10:13:58;;;;;;;32.95;23.40;;;5.80;99.90;;;;;;5143324;27;20067;-77
2024/01/05 10:16:39;;;;;;;32.58;21.00;;;5.90;99.90;;;;;;5135301;27;20417;-77
2024/01/05 10:19:15;;;;;;;29.05;19.45;;;5.90;99.90;;;;;;5126147;27;20463;-76
2024/01/05 10:21:46;;;;;;;25.25;17.27;;;6.00;99.90;;;;;;5122167;27;20078;-77
2024/01/05 10:24:29;;;;;;;24.85;17.70;;;6.00;99.90;;;;;;5129801;27;20057;-77
2024/01/05 10:27:07;;;;;;;23.73;17.52;;;6.00;99.90;;;;;;5129176;27;20047;-77
2024/01/05 10:29:35;;;;;;;21.00;16.80;;;6.10;99.90;;;;;;5109795;27;20100;-77
2024/01/05 10:32:13;;;;;;;22.52;17.42;;;6.10;99.90;;;;;;5128467;27;20050;-77
2024/01/05 10:34:47;;;;;;;25.48;18.77;;;6.10;99.90;;;;;;5146760;27;20434;-76
2024/01/05 10:37:14;;;;;;;24.67;18.77;;;6.10;99.90;;;;;;5109997;27;20954;-77
2024/01/05 10:39:47;;;;;;;26.52;19.42;;;6.10;99.90;;;;;;5113336;27;20564;-77
2024/01/05 10:42:20;;;;;;;25.05;19.60;;;6.10;99.90;;;;;;5126254;27;20396;-76
2024/01/05 10:44:47;;;;;;;29.50;20.63;;;6.10;99.90;;;;;;5136830;27;20145;-78
2024/01/05 10:47:17;;;;;;;29.45;21.75;;;6.10;99.90;;;;;;5116006;27;20107;-76
2024/01/05 10:49:48;;;;;;;32.42;22.92;;;6.10;99.90;;;;;;5121688;27;20066;-76
2024/01/05 10:52:19;;;;;;;32.67;23.10;;;6.10;99.90;;;;;;5121502;27;20050;-75
2024/01/05 10:54:50;;;;;;;32.58;22.52;;;6.10;99.90;;;;;;5123933;27;20043;-76
2024/01/05 10:57:17;;;;;;;32.90;23.67;;;6.00;99.90;;;;;;5131234;27;20042;-75
2024/01/05 10:59:50;;;;;;;28.38;22.27;;;6.00;99.90;;;;;;5115728;27;20514;-75
2024/01/05 11:02:29;;;;;;;35.28;24.20;;;6.00;99.90;;;;;;5114695;27;20038;-75
2024/01/05 11:05:08;;;;;;;28.70;21.27;;;6.00;99.90;;;;;;5137957;27;20060;-76
2024/01/05 11:07:38;;;;;;;28.77;21.70;;;5.90;99.90;;;;;;5132011;27;20039;-76
2024/01/05 11:10:32;;;;;;;34.25;20.80;;;6.00;99.90;;;;;;5135589;27;20098;-75
2024/01/05 11:13:39;;;;;;;29.13;20.85;;;5.90;99.90;;;;;;5131842;27;20046;-76
2024/01/05 11:16:23;;;;;;;26.63;20.10;;;6.00;99.90;;;;;;5121800;27;20483;-76
2024/01/05 11:19:01;;;;;;;27.90;19.52;;;6.00;99.90;;;;;;5130883;27;20040;-75
2024/01/05 11:21:46;;;;;;;23.80;15.95;;;6.00;99.90;;;;;;5117525;27;20057;-76
2024/01/05 11:24:13;;;;;;;21.80;17.20;;;6.10;99.90;;;;;;5122110;27;20042;-76
2024/01/05 11:26:44;;;;;;;22.83;17.00;;;6.10;99.90;;;;;;5125851;27;20133;-76
2024/01/05 11:29:50;;;;;;;25.88;17.23;;;6.10;99.90;;;;;;5127017;27;20043;-76
2024/01/05 11:32:39;;;;;;;15.25;12.20;;;6.20;99.90;;;;;;5103811;27;20042;-76
2024/01/05 11:35:24;;;;;;;14.05;9.93;;;6.20;99.90;;;;;;5119706;27;20086;-76
2024/01/05 11:37:51;;;;;;;12.10;7.40;;;6.20;99.90;;;;;;5108118;27;20051;-76
2024/01/05 11:40:31;;;;;;;8.63;5.32;;;6.20;99.90;;;;;;5110996;27;20039;-77
2024/01/05 11:42:58;;;;;;;7.72;5.18;;;6.20;99.90;;;;;;5132434;27;20050;-76
2024/01/05 11:45:46;;;;;;;10.20;6.03;;;6.20;99.90;;;;;;5112982;27;20142;-77
2024/01/05 11:48:33;;;;;;;7.57;4.47;;;6.30;99.90;;;;;;5153994;27;20035;-77
2024/01/05 11:51:02;;;;;;;8.75;5.85;;;6.30;99.90;;;;;;5121456;27;20050;-79
2024/01/05 11:53:29;;;;;;;14.43;9.55;;;6.30;99.90;;;;;;5109396;27;20050;-80
2024/01/05 11:56:03;;;;;;;13.23;8.10;;;6.30;99.90;;;;;;5125246;27;20035;-77
2024/01/05 11:58:33;;;;;;;6.93;4.60;;;6.30;99.90;;;;;;5128627;27;20082;-77
2024/01/05 12:01:00;;;;;;;10.63;7.03;;;6.30;99.90;;;;;;5120995;27;20509;-77
2024/01/05 12:03:27;;;;;;;10.80;6.95;;;6.40;99.90;;;;;;5117271;27;20034;-77
2024/01/05 12:06:03;;;;;;;8.80;5.53;;;6.40;99.90;;;;;;5121144;27;20251;-76
2024/01/05 12:08:30;;;;;;;7.38;4.72;;;6.40;99.90;;;;;;5125900;27;21210;-79
2024/01/05 12:11:08;;;;;;;8.00;4.25;;;6.40;99.90;;;;;;5106921;27;20070;-79
2024/01/05 12:13:35;;;;;;;6.47;3.90;;;6.40;99.90;;;;;;5111342;27;20038;-76
2024/01/05 12:16:06;;;;;;;6.07;3.25;;;6.30;99.90;;;;;;5111899;27;20117;-76
2024/01/05 12:18:42;;;;;;;5.32;3.03;;;6.40;99.90;;;;;;5109780;27;20035;-77
2024/01/05 12:21:11;;;;;;;6.13;3.20;;;6.30;99.90;;;;;;5123091;27;20041;-76
2024/01/05 12:23:37;;;;;;;4.53;2.80;;;6.40;99.90;;;;;;5105814;27;20128;-82
2024/01/05 12:26:08;;;;;;;3.30;1.88;;;6.40;99.90;;;;;;5112048;27;20038;-82
2024/01/05 12:28:38;;;;;;;3.38;2.20;;;6.40;99.90;;;;;;5110708;27;20099;-82
2024/01/05 12:31:05;;;;;;;2.40;1.70;;;6.40;99.90;;;;;;5122089;27;20073;-83
2024/01/05 12:33:34;;;;;;;3.33;1.75;;;6.40;99.90;;;;;;5126860;27;20137;-83
2024/01/05 12:36:00;;;;;;;3.80;1.70;;;6.40;99.90;;;;;;5112348;27;20053;-83
2024/01/05 12:38:27;;;;;;;2.50;1.63;;;6.40;99.90;;;;;;5112674;27;20549;-83
2024/01/05 12:41:08;;;;;;;5.00;2.05;;;6.40;99.90;;;;;;5128684;27;20046;-81